sensor_id;sensor_type;location;lat;lon;timestamp;P1;durP1;ratioP1;P2;durP2;ratioP2
66429;SDS011;53242;51.694;10.006;2022-11-20T00:00:45;16.50;;;5.70;;
66429;SDS011;53242;51.694;10.006;2022-11-20T00:03:08;17.70;;;5.95;;
66429;SDS011;53242;51.694;10.006;2022-11-20T00:05:32;17.33;;;5.25;;
66429;SDS011;53242;51.694;10.006;2022-11-20T00:07:55;14.57;;;5.22;;
66429;SDS011;53242;51.694;10.006;2022-11-20T00:10:17;15.35;;;5.63;;
66429;SDS011;53242;51.694;10.006;2022-11-20T00:12:39;12.40;;;4.65;;
66429;SDS011;53242;51.694;10.006;2022-11-20T00:15:02;14.57;;;5.38;;
66429;SDS011;53242;51.694;10.006;2022-11-20T00:17:25;16.55;;;5.35;;
66429;SDS011;53242;51.694;10.006;2022-11-20T00:19:47;14.65;;;5.90;;
66429;SDS011;53242;51.694;10.006;2022-11-20T00:22:10;17.50;;;5.97;;
66429;SDS011;53242;51.694;10.006;2022-11-20T00:24:32;13.82;;;5.78;;
66429;SDS011;53242;51.694;10.006;2022-11-20T00:26:55;15.65;;;5.80;;
66429;SDS011;53242;51.694;10.006;2022-11-20T00:29:17;15.45;;;6.30;;
66429;SDS011;53242;51.694;10.006;2022-11-20T00:31:40;17.15;;;5.53;;
66429;SDS011;53242;51.694;10.006;2022-11-20T00:34:02;16.33;;;6.63;;
66429;SDS011;53242;51.694;10.006;2022-11-20T00:36:25;16.27;;;6.57;;
66429;SDS011;53242;51.694;10.006;2022-11-20T00:38:52;20.40;;;7.05;;
66429;SDS011;53242;51.694;10.006;2022-11-20T00:41:15;17.20;;;6.78;;
66429;SDS011;53242;51.694;10.006;2022-11-20T00:43:38;17.15;;;6.25;;
66429;SDS011;53242;51.694;10.006;2022-11-20T00:46:01;14.52;;;6.28;;
66429;SDS011;53242;51.694;10.006;2022-11-20T00:48:26;17.63;;;6.63;;
66429;SDS011;53242;51.694;10.006;2022-11-20T00:50:49;18.48;;;6.53;;
66429;SDS011;53242;51.694;10.006;2022-11-20T00:53:12;18.33;;;6.38;;
66429;SDS011;53242;51.694;10.006;2022-11-20T00:55:34;13.88;;;5.68;;
66429;SDS011;53242;51.694;10.006;2022-11-20T00:57:56;15.98;;;6.40;;
66429;SDS011;53242;51.694;10.006;2022-11-20T01:00:19;19.63;;;6.78;;
66429;SDS011;53242;51.694;10.006;2022-11-20T01:02:41;15.68;;;5.90;;
66429;SDS011;53242;51.694;10.006;2022-11-20T01:05:04;17.08;;;5.88;;
66429;SDS011;53242;51.694;10.006;2022-11-20T01:07:26;14.82;;;5.97;;
66429;SDS011;53242;51.694;10.006;2022-11-20T01:09:48;14.63;;;5.72;;
66429;SDS011;53242;51.694;10.006;2022-11-20T01:12:11;16.35;;;6.53;;
66429;SDS011;53242;51.694;10.006;2022-11-20T01:14:33;16.70;;;5.85;;
66429;SDS011;53242;51.694;10.006;2022-11-20T01:16:56;15.60;;;6.57;;
66429;SDS011;53242;51.694;10.006;2022-11-20T01:19:19;13.18;;;6.22;;
66429;SDS011;53242;51.694;10.006;2022-11-20T01:21:44;19.92;;;7.25;;
66429;SDS011;53242;51.694;10.006;2022-11-20T01:24:10;15.38;;;6.38;;
66429;SDS011;53242;51.694;10.006;2022-11-20T01:26:36;18.83;;;6.63;;
66429;SDS011;53242;51.694;10.006;2022-11-20T01:28:59;14.70;;;5.60;;
66429;SDS011;53242;51.694;10.006;2022-11-20T01:31:24;18.25;;;5.75;;
66429;SDS011;53242;51.694;10.006;2022-11-20T01:33:51;17.50;;;6.40;;
66429;SDS011;53242;51.694;10.006;2022-11-20T01:36:16;17.17;;;6.80;;
66429;SDS011;53242;51.694;10.006;2022-11-20T01:38:39;16.20;;;5.65;;
66429;SDS011;53242;51.694;10.006;2022-11-20T01:41:02;19.65;;;6.63;;
66429;SDS011;53242;51.694;10.006;2022-11-20T01:43:25;16.13;;;5.85;;
66429;SDS011;53242;51.694;10.006;2022-11-20T01:45:58;16.98;;;5.90;;
66429;SDS011;53242;51.694;10.006;2022-11-20T01:48:23;18.70;;;6.25;;
66429;SDS011;53242;51.694;10.006;2022-11-20T01:50:51;18.80;;;6.38;;
66429;SDS011;53242;51.694;10.006;2022-11-20T01:53:16;20.45;;;6.35;;
66429;SDS011;53242;51.694;10.006;2022-11-20T01:55:44;14.48;;;5.18;;
66429;SDS011;53242;51.694;10.006;2022-11-20T01:58:14;16.38;;;5.80;;
66429;SDS011;53242;51.694;10.006;2022-11-20T02:00:37;14.73;;;5.88;;
66429;SDS011;53242;51.694;10.006;2022-11-20T02:03:01;16.65;;;6.00;;
66429;SDS011;53242;51.694;10.006;2022-11-20T02:05:35;14.35;;;5.70;;
66429;SDS011;53242;51.694;10.006;2022-11-20T02:08:02;12.75;;;5.53;;
66429;SDS011;53242;51.694;10.006;2022-11-20T02:10:26;12.85;;;5.85;;
66429;SDS011;53242;51.694;10.006;2022-11-20T02:12:50;18.92;;;6.32;;
66429;SDS011;53242;51.694;10.006;2022-11-20T02:15:32;20.67;;;6.25;;
66429;SDS011;53242;51.694;10.006;2022-11-20T02:17:55;16.90;;;5.68;;
66429;SDS011;53242;51.694;10.006;2022-11-20T02:20:18;16.25;;;5.40;;
66429;SDS011;53242;51.694;10.006;2022-11-20T02:23:17;15.00;;;5.10;;
66429;SDS011;53242;51.694;10.006;2022-11-20T02:25:34;14.68;;;4.95;;
66429;SDS011;53242;51.694;10.006;2022-11-20T02:27:58;18.13;;;5.90;;
66429;SDS011;53242;51.694;10.006;2022-11-20T02:30:21;16.55;;;5.50;;
66429;SDS011;53242;51.694;10.006;2022-11-20T02:32:43;15.57;;;5.75;;
66429;SDS011;53242;51.694;10.006;2022-11-20T02:35:07;14.20;;;4.90;;
66429;SDS011;53242;51.694;10.006;2022-11-20T02:37:30;17.05;;;6.25;;
66429;SDS011;53242;51.694;10.006;2022-11-20T02:39:56;16.83;;;5.60;;
66429;SDS011;53242;51.694;10.006;2022-11-20T02:42:19;14.35;;;5.22;;
66429;SDS011;53242;51.694;10.006;2022-11-20T02:44:41;15.32;;;5.70;;
66429;SDS011;53242;51.694;10.006;2022-11-20T02:47:04;19.17;;;5.57;;
66429;SDS011;53242;51.694;10.006;2022-11-20T02:49:26;18.25;;;6.00;;
66429;SDS011;53242;51.694;10.006;2022-11-20T02:51:49;15.40;;;5.28;;
66429;SDS011;53242;51.694;10.006;2022-11-20T02:54:11;14.90;;;5.53;;
66429;SDS011;53242;51.694;10.006;2022-11-20T02:56:34;15.07;;;5.50;;
66429;SDS011;53242;51.694;10.006;2022-11-20T02:58:56;13.40;;;4.95;;
66429;SDS011;53242;51.694;10.006;2022-11-20T03:01:18;16.42;;;5.65;;
66429;SDS011;53242;51.694;10.006;2022-11-20T03:03:41;14.80;;;5.65;;
66429;SDS011;53242;51.694;10.006;2022-11-20T03:06:03;13.82;;;5.28;;
66429;SDS011;53242;51.694;10.006;2022-11-20T03:08:26;17.75;;;6.38;;
66429;SDS011;53242;51.694;10.006;2022-11-20T03:10:48;17.50;;;5.40;;
66429;SDS011;53242;51.694;10.006;2022-11-20T03:13:11;14.20;;;5.68;;
66429;SDS011;53242;51.694;10.006;2022-11-20T03:15:33;14.23;;;5.60;;
66429;SDS011;53242;51.694;10.006;2022-11-20T03:17:58;14.90;;;4.88;;
66429;SDS011;53242;51.694;10.006;2022-11-20T03:20:20;16.05;;;5.75;;
66429;SDS011;53242;51.694;10.006;2022-11-20T03:22:43;15.02;;;6.00;;
66429;SDS011;53242;51.694;10.006;2022-11-20T03:25:05;17.20;;;5.65;;
66429;SDS011;53242;51.694;10.006;2022-11-20T03:27:31;19.65;;;5.22;;
66429;SDS011;53242;51.694;10.006;2022-11-20T03:33:10;12.15;;;4.63;;
66429;SDS011;53242;51.694;10.006;2022-11-20T03:35:32;15.23;;;5.00;;
66429;SDS011;53242;51.694;10.006;2022-11-20T03:37:54;15.60;;;5.30;;
66429;SDS011;53242;51.694;10.006;2022-11-20T03:40:17;16.30;;;4.60;;
66429;SDS011;53242;51.694;10.006;2022-11-20T03:42:39;17.38;;;5.25;;
66429;SDS011;53242;51.694;10.006;2022-11-20T03:45:08;16.42;;;6.30;;
66429;SDS011;53242;51.694;10.006;2022-11-20T03:47:30;17.23;;;6.15;;
66429;SDS011;53242;51.694;10.006;2022-11-20T03:49:53;17.25;;;5.95;;
66429;SDS011;53242;51.694;10.006;2022-11-20T03:52:15;14.23;;;5.45;;
66429;SDS011;53242;51.694;10.006;2022-11-20T03:54:37;16.70;;;4.88;;
66429;SDS011;53242;51.694;10.006;2022-11-20T03:57:00;19.17;;;5.95;;
66429;SDS011;53242;51.694;10.006;2022-11-20T03:59:22;15.98;;;5.20;;
66429;SDS011;53242;51.694;10.006;2022-11-20T04:01:45;19.40;;;5.88;;
66429;SDS011;53242;51.694;10.006;2022-11-20T04:04:07;16.48;;;5.07;;
66429;SDS011;53242;51.694;10.006;2022-11-20T04:06:30;17.17;;;5.97;;
66429;SDS011;53242;51.694;10.006;2022-11-20T04:08:56;16.85;;;5.03;;
66429;SDS011;53242;51.694;10.006;2022-11-20T04:11:20;17.13;;;5.90;;
66429;SDS011;53242;51.694;10.006;2022-11-20T04:13:46;16.13;;;4.90;;
66429;SDS011;53242;51.694;10.006;2022-11-20T04:16:10;16.00;;;5.30;;
66429;SDS011;53242;51.694;10.006;2022-11-20T04:18:32;17.02;;;5.53;;
66429;SDS011;53242;51.694;10.006;2022-11-20T04:20:56;17.85;;;5.75;;
66429;SDS011;53242;51.694;10.006;2022-11-20T04:23:19;14.52;;;5.45;;
66429;SDS011;53242;51.694;10.006;2022-11-20T04:25:41;15.05;;;4.85;;
66429;SDS011;53242;51.694;10.006;2022-11-20T04:28:04;17.15;;;5.60;;
66429;SDS011;53242;51.694;10.006;2022-11-20T04:30:26;17.75;;;5.68;;
66429;SDS011;53242;51.694;10.006;2022-11-20T04:32:49;14.60;;;5.10;;
66429;SDS011;53242;51.694;10.006;2022-11-20T04:35:11;14.13;;;4.30;;
66429;SDS011;53242;51.694;10.006;2022-11-20T04:37:33;16.25;;;4.75;;
66429;SDS011;53242;51.694;10.006;2022-11-20T04:39:56;16.17;;;5.65;;
66429;SDS011;53242;51.694;10.006;2022-11-20T04:42:18;15.50;;;5.25;;
66429;SDS011;53242;51.694;10.006;2022-11-20T04:44:53;14.02;;;5.07;;
66429;SDS011;53242;51.694;10.006;2022-11-20T04:47:15;18.67;;;5.88;;
66429;SDS011;53242;51.694;10.006;2022-11-20T04:49:38;14.80;;;4.63;;
66429;SDS011;53242;51.694;10.006;2022-11-20T04:52:00;16.17;;;5.07;;
66429;SDS011;53242;51.694;10.006;2022-11-20T04:54:22;13.57;;;4.88;;
66429;SDS011;53242;51.694;10.006;2022-11-20T04:56:48;15.20;;;5.63;;
66429;SDS011;53242;51.694;10.006;2022-11-20T04:59:11;16.35;;;5.45;;
66429;SDS011;53242;51.694;10.006;2022-11-20T05:01:33;16.23;;;5.38;;
66429;SDS011;53242;51.694;10.006;2022-11-20T05:03:56;16.60;;;5.82;;
66429;SDS011;53242;51.694;10.006;2022-11-20T05:06:19;14.55;;;5.88;;
66429;SDS011;53242;51.694;10.006;2022-11-20T05:08:43;16.92;;;5.60;;
66429;SDS011;53242;51.694;10.006;2022-11-20T05:13:31;15.13;;;5.32;;
66429;SDS011;53242;51.694;10.006;2022-11-20T05:15:54;15.75;;;5.47;;
66429;SDS011;53242;51.694;10.006;2022-11-20T05:18:16;19.92;;;6.00;;
66429;SDS011;53242;51.694;10.006;2022-11-20T05:20:39;16.48;;;5.40;;
66429;SDS011;53242;51.694;10.006;2022-11-20T05:23:01;15.70;;;6.00;;
66429;SDS011;53242;51.694;10.006;2022-11-20T05:25:24;19.27;;;6.10;;
66429;SDS011;53242;51.694;10.006;2022-11-20T05:27:47;19.70;;;5.85;;
66429;SDS011;53242;51.694;10.006;2022-11-20T05:30:09;16.52;;;6.30;;
66429;SDS011;53242;51.694;10.006;2022-11-20T05:32:32;20.50;;;5.53;;
66429;SDS011;53242;51.694;10.006;2022-11-20T05:34:55;17.85;;;5.75;;
66429;SDS011;53242;51.694;10.006;2022-11-20T05:37:17;18.85;;;5.90;;
66429;SDS011;53242;51.694;10.006;2022-11-20T05:39:40;20.90;;;6.28;;
66429;SDS011;53242;51.694;10.006;2022-11-20T05:42:02;19.50;;;6.15;;
66429;SDS011;53242;51.694;10.006;2022-11-20T05:44:43;14.90;;;5.18;;
66429;SDS011;53242;51.694;10.006;2022-11-20T05:47:05;20.58;;;6.00;;
66429;SDS011;53242;51.694;10.006;2022-11-20T05:49:28;19.98;;;6.07;;
66429;SDS011;53242;51.694;10.006;2022-11-20T05:51:50;22.05;;;7.22;;
66429;SDS011;53242;51.694;10.006;2022-11-20T05:54:12;17.15;;;5.95;;
66429;SDS011;53242;51.694;10.006;2022-11-20T05:56:35;19.77;;;6.57;;
66429;SDS011;53242;51.694;10.006;2022-11-20T05:58:57;44.17;;;14.98;;
66429;SDS011;53242;51.694;10.006;2022-11-20T06:01:21;33.63;;;11.80;;
66429;SDS011;53242;51.694;10.006;2022-11-20T06:03:45;34.20;;;12.50;;
66429;SDS011;53242;51.694;10.006;2022-11-20T06:06:09;28.92;;;10.48;;
66429;SDS011;53242;51.694;10.006;2022-11-20T06:08:32;25.73;;;9.30;;
66429;SDS011;53242;51.694;10.006;2022-11-20T06:10:54;20.33;;;7.88;;
66429;SDS011;53242;51.694;10.006;2022-11-20T06:13:17;26.33;;;9.27;;
66429;SDS011;53242;51.694;10.006;2022-11-20T06:15:39;23.25;;;8.30;;
66429;SDS011;53242;51.694;10.006;2022-11-20T06:18:01;26.52;;;8.45;;
66429;SDS011;53242;51.694;10.006;2022-11-20T06:20:24;24.95;;;9.02;;
66429;SDS011;53242;51.694;10.006;2022-11-20T06:22:46;24.65;;;8.07;;
66429;SDS011;53242;51.694;10.006;2022-11-20T06:25:09;21.77;;;8.90;;
66429;SDS011;53242;51.694;10.006;2022-11-20T06:27:31;21.83;;;8.88;;
66429;SDS011;53242;51.694;10.006;2022-11-20T06:29:53;26.58;;;8.55;;
66429;SDS011;53242;51.694;10.006;2022-11-20T06:32:16;24.95;;;8.38;;
66429;SDS011;53242;51.694;10.006;2022-11-20T06:34:38;26.70;;;8.68;;
66429;SDS011;53242;51.694;10.006;2022-11-20T06:37:01;22.95;;;7.70;;
66429;SDS011;53242;51.694;10.006;2022-11-20T06:39:23;21.48;;;8.07;;
66429;SDS011;53242;51.694;10.006;2022-11-20T06:41:45;20.48;;;7.43;;
66429;SDS011;53242;51.694;10.006;2022-11-20T06:44:08;21.13;;;7.60;;
66429;SDS011;53242;51.694;10.006;2022-11-20T06:46:30;20.08;;;7.32;;
66429;SDS011;53242;51.694;10.006;2022-11-20T06:48:53;19.67;;;6.80;;
66429;SDS011;53242;51.694;10.006;2022-11-20T06:51:16;17.30;;;6.28;;
66429;SDS011;53242;51.694;10.006;2022-11-20T06:53:39;19.98;;;6.93;;
66429;SDS011;53242;51.694;10.006;2022-11-20T06:56:02;18.52;;;7.13;;
66429;SDS011;53242;51.694;10.006;2022-11-20T06:58:29;19.63;;;6.53;;
66429;SDS011;53242;51.694;10.006;2022-11-20T07:00:57;18.60;;;7.00;;
66429;SDS011;53242;51.694;10.006;2022-11-20T07:03:23;20.50;;;6.85;;
66429;SDS011;53242;51.694;10.006;2022-11-20T07:05:45;20.77;;;6.25;;
66429;SDS011;53242;51.694;10.006;2022-11-20T07:08:09;20.63;;;6.90;;
66429;SDS011;53242;51.694;10.006;2022-11-20T07:10:31;21.33;;;7.25;;
66429;SDS011;53242;51.694;10.006;2022-11-20T07:12:54;18.70;;;6.13;;
66429;SDS011;53242;51.694;10.006;2022-11-20T07:15:17;17.58;;;6.90;;
66429;SDS011;53242;51.694;10.006;2022-11-20T07:17:40;19.55;;;7.55;;
66429;SDS011;53242;51.694;10.006;2022-11-20T07:20:02;18.95;;;6.93;;
66429;SDS011;53242;51.694;10.006;2022-11-20T07:22:25;22.30;;;7.28;;
66429;SDS011;53242;51.694;10.006;2022-11-20T07:24:48;26.75;;;7.43;;
66429;SDS011;53242;51.694;10.006;2022-11-20T07:27:10;22.90;;;7.32;;
66429;SDS011;53242;51.694;10.006;2022-11-20T07:29:33;21.15;;;7.25;;
66429;SDS011;53242;51.694;10.006;2022-11-20T07:31:55;28.30;;;8.05;;
66429;SDS011;53242;51.694;10.006;2022-11-20T07:34:18;19.85;;;6.53;;
66429;SDS011;53242;51.694;10.006;2022-11-20T07:36:41;18.20;;;6.72;;
66429;SDS011;53242;51.694;10.006;2022-11-20T07:39:04;18.30;;;6.13;;
66429;SDS011;53242;51.694;10.006;2022-11-20T07:41:26;18.25;;;6.65;;
66429;SDS011;53242;51.694;10.006;2022-11-20T07:43:49;22.40;;;7.03;;
66429;SDS011;53242;51.694;10.006;2022-11-20T07:46:12;20.10;;;7.43;;
66429;SDS011;53242;51.694;10.006;2022-11-20T07:48:34;22.38;;;8.27;;
66429;SDS011;53242;51.694;10.006;2022-11-20T07:50:56;25.02;;;8.63;;
66429;SDS011;53242;51.694;10.006;2022-11-20T07:53:19;24.92;;;9.15;;
66429;SDS011;53242;51.694;10.006;2022-11-20T07:55:43;23.17;;;9.20;;
66429;SDS011;53242;51.694;10.006;2022-11-20T07:58:06;25.50;;;8.90;;
66429;SDS011;53242;51.694;10.006;2022-11-20T08:00:28;31.17;;;11.43;;
66429;SDS011;53242;51.694;10.006;2022-11-20T08:02:50;32.70;;;11.32;;
66429;SDS011;53242;51.694;10.006;2022-11-20T08:05:13;27.77;;;8.70;;
66429;SDS011;53242;51.694;10.006;2022-11-20T08:07:36;27.25;;;10.00;;
66429;SDS011;53242;51.694;10.006;2022-11-20T08:10:03;27.77;;;10.48;;
66429;SDS011;53242;51.694;10.006;2022-11-20T08:12:26;29.23;;;10.15;;
66429;SDS011;53242;51.694;10.006;2022-11-20T08:15:07;21.52;;;7.70;;
66429;SDS011;53242;51.694;10.006;2022-11-20T08:17:30;22.77;;;7.47;;
66429;SDS011;53242;51.694;10.006;2022-11-20T08:19:52;21.70;;;8.13;;
66429;SDS011;53242;51.694;10.006;2022-11-20T08:22:15;16.90;;;5.55;;
66429;SDS011;53242;51.694;10.006;2022-11-20T08:24:39;19.77;;;6.55;;
66429;SDS011;53242;51.694;10.006;2022-11-20T08:27:02;18.98;;;6.30;;
66429;SDS011;53242;51.694;10.006;2022-11-20T08:29:25;18.55;;;6.22;;
66429;SDS011;53242;51.694;10.006;2022-11-20T08:31:48;18.83;;;6.47;;
66429;SDS011;53242;51.694;10.006;2022-11-20T08:34:11;18.70;;;7.18;;
66429;SDS011;53242;51.694;10.006;2022-11-20T08:36:33;18.95;;;6.63;;
66429;SDS011;53242;51.694;10.006;2022-11-20T08:38:56;18.63;;;6.10;;
66429;SDS011;53242;51.694;10.006;2022-11-20T08:41:19;17.05;;;6.43;;
66429;SDS011;53242;51.694;10.006;2022-11-20T08:43:45;16.73;;;5.45;;
66429;SDS011;53242;51.694;10.006;2022-11-20T08:46:07;17.65;;;5.90;;
66429;SDS011;53242;51.694;10.006;2022-11-20T08:48:30;17.35;;;6.80;;
66429;SDS011;53242;51.694;10.006;2022-11-20T08:50:52;20.23;;;6.47;;
66429;SDS011;53242;51.694;10.006;2022-11-20T08:53:15;16.42;;;4.93;;
66429;SDS011;53242;51.694;10.006;2022-11-20T08:55:37;19.10;;;6.53;;
66429;SDS011;53242;51.694;10.006;2022-11-20T08:58:04;17.25;;;5.18;;
66429;SDS011;53242;51.694;10.006;2022-11-20T09:00:27;11.77;;;3.30;;
66429;SDS011;53242;51.694;10.006;2022-11-20T09:02:50;17.58;;;5.15;;
66429;SDS011;53242;51.694;10.006;2022-11-20T09:05:13;19.02;;;5.78;;
66429;SDS011;53242;51.694;10.006;2022-11-20T09:07:36;15.43;;;5.45;;
66429;SDS011;53242;51.694;10.006;2022-11-20T09:09:58;17.38;;;5.50;;
66429;SDS011;53242;51.694;10.006;2022-11-20T09:12:21;16.17;;;5.63;;
66429;SDS011;53242;51.694;10.006;2022-11-20T09:14:43;12.88;;;4.72;;
66429;SDS011;53242;51.694;10.006;2022-11-20T09:17:06;18.23;;;5.93;;
66429;SDS011;53242;51.694;10.006;2022-11-20T09:19:29;15.27;;;5.50;;
66429;SDS011;53242;51.694;10.006;2022-11-20T09:21:51;16.60;;;5.80;;
66429;SDS011;53242;51.694;10.006;2022-11-20T09:24:14;20.73;;;6.20;;
66429;SDS011;53242;51.694;10.006;2022-11-20T09:26:36;18.48;;;5.18;;
66429;SDS011;53242;51.694;10.006;2022-11-20T09:28:59;19.83;;;6.32;;
66429;SDS011;53242;51.694;10.006;2022-11-20T09:31:22;19.08;;;5.68;;
66429;SDS011;53242;51.694;10.006;2022-11-20T09:33:45;18.58;;;6.88;;
66429;SDS011;53242;51.694;10.006;2022-11-20T09:36:08;21.25;;;6.55;;
66429;SDS011;53242;51.694;10.006;2022-11-20T09:38:30;21.60;;;6.72;;
66429;SDS011;53242;51.694;10.006;2022-11-20T09:43:21;18.77;;;5.90;;
66429;SDS011;53242;51.694;10.006;2022-11-20T09:45:58;19.38;;;5.47;;
66429;SDS011;53242;51.694;10.006;2022-11-20T09:48:42;19.67;;;5.50;;
66429;SDS011;53242;51.694;10.006;2022-11-20T09:51:31;17.73;;;5.88;;
66429;SDS011;53242;51.694;10.006;2022-11-20T09:56:45;13.00;;;4.30;;
66429;SDS011;53242;51.694;10.006;2022-11-20T09:59:16;17.05;;;4.47;;
66429;SDS011;53242;51.694;10.006;2022-11-20T10:02:01;21.23;;;5.65;;
66429;SDS011;53242;51.694;10.006;2022-11-20T10:04:29;15.70;;;5.07;;
66429;SDS011;53242;51.694;10.006;2022-11-20T10:09:32;16.75;;;5.30;;
66429;SDS011;53242;51.694;10.006;2022-11-20T10:15:27;8.73;;;2.47;;
66429;SDS011;53242;51.694;10.006;2022-11-20T10:21:01;16.25;;;5.32;;
66429;SDS011;53242;51.694;10.006;2022-11-20T10:23:28;17.50;;;5.45;;
66429;SDS011;53242;51.694;10.006;2022-11-20T10:31:31;18.35;;;4.70;;
66429;SDS011;53242;51.694;10.006;2022-11-20T10:33:56;20.90;;;5.95;;
66429;SDS011;53242;51.694;10.006;2022-11-20T10:36:23;17.42;;;4.95;;
66429;SDS011;53242;51.694;10.006;2022-11-20T10:39:01;17.73;;;4.82;;
66429;SDS011;53242;51.694;10.006;2022-11-20T10:41:32;16.63;;;5.38;;
66429;SDS011;53242;51.694;10.006;2022-11-20T10:44:09;20.08;;;6.03;;
66429;SDS011;53242;51.694;10.006;2022-11-20T10:46:38;17.25;;;5.90;;
66429;SDS011;53242;51.694;10.006;2022-11-20T10:49:10;20.58;;;6.65;;
66429;SDS011;53242;51.694;10.006;2022-11-20T10:51:40;13.60;;;4.82;;
66429;SDS011;53242;51.694;10.006;2022-11-20T10:54:30;17.98;;;5.93;;
66429;SDS011;53242;51.694;10.006;2022-11-20T10:57:18;18.77;;;5.32;;
66429;SDS011;53242;51.694;10.006;2022-11-20T11:02:20;15.55;;;5.18;;
66429;SDS011;53242;51.694;10.006;2022-11-20T11:04:45;17.33;;;5.60;;
66429;SDS011;53242;51.694;10.006;2022-11-20T11:09:37;33.75;;;14.45;;
66429;SDS011;53242;51.694;10.006;2022-11-20T11:12:07;11.85;;;4.80;;
66429;SDS011;53242;51.694;10.006;2022-11-20T11:14:31;20.38;;;6.72;;
66429;SDS011;53242;51.694;10.006;2022-11-20T11:17:17;15.60;;;5.38;;
66429;SDS011;53242;51.694;10.006;2022-11-20T11:19:42;18.23;;;5.65;;
66429;SDS011;53242;51.694;10.006;2022-11-20T11:22:04;18.73;;;6.38;;
66429;SDS011;53242;51.694;10.006;2022-11-20T11:24:37;17.23;;;5.20;;
66429;SDS011;53242;51.694;10.006;2022-11-20T11:27:00;17.50;;;6.30;;
66429;SDS011;53242;51.694;10.006;2022-11-20T11:29:26;15.43;;;6.25;;
66429;SDS011;53242;51.694;10.006;2022-11-20T11:34:14;18.20;;;5.55;;
66429;SDS011;53242;51.694;10.006;2022-11-20T11:36:38;19.55;;;5.43;;
66429;SDS011;53242;51.694;10.006;2022-11-20T11:39:01;14.70;;;4.30;;
66429;SDS011;53242;51.694;10.006;2022-11-20T11:41:27;8.23;;;2.65;;
66429;SDS011;53242;51.694;10.006;2022-11-20T11:43:54;23.67;;;7.15;;
66429;SDS011;53242;51.694;10.006;2022-11-20T11:46:37;18.65;;;5.28;;
66429;SDS011;53242;51.694;10.006;2022-11-20T11:54:43;16.52;;;5.53;;
66429;SDS011;53242;51.694;10.006;2022-11-20T11:57:16;19.42;;;7.03;;
66429;SDS011;53242;51.694;10.006;2022-11-20T11:59:52;18.33;;;5.97;;
66429;SDS011;53242;51.694;10.006;2022-11-20T12:02:36;19.00;;;5.90;;
66429;SDS011;53242;51.694;10.006;2022-11-20T12:05:00;10.35;;;3.58;;
66429;SDS011;53242;51.694;10.006;2022-11-20T12:09:53;7.63;;;2.47;;
66429;SDS011;53242;51.694;10.006;2022-11-20T12:12:18;20.05;;;6.07;;
66429;SDS011;53242;51.694;10.006;2022-11-20T12:14:46;10.38;;;4.35;;
66429;SDS011;53242;51.694;10.006;2022-11-20T12:17:12;13.25;;;4.00;;
66429;SDS011;53242;51.694;10.006;2022-11-20T12:19:36;15.52;;;4.88;;
66429;SDS011;53242;51.694;10.006;2022-11-20T12:22:02;17.60;;;6.22;;
66429;SDS011;53242;51.694;10.006;2022-11-20T12:24:38;17.63;;;5.90;;
66429;SDS011;53242;51.694;10.006;2022-11-20T12:27:31;18.60;;;5.85;;
66429;SDS011;53242;51.694;10.006;2022-11-20T12:30:26;16.17;;;5.47;;
66429;SDS011;53242;51.694;10.006;2022-11-20T12:40:52;13.45;;;4.63;;
66429;SDS011;53242;51.694;10.006;2022-11-20T12:43:29;17.23;;;5.97;;
66429;SDS011;53242;51.694;10.006;2022-11-20T12:56:57;15.90;;;5.97;;
66429;SDS011;53242;51.694;10.006;2022-11-20T12:59:33;15.30;;;5.13;;
66429;SDS011;53242;51.694;10.006;2022-11-20T13:02:09;15.07;;;5.78;;
66429;SDS011;53242;51.694;10.006;2022-11-20T13:07:33;12.90;;;5.35;;
66429;SDS011;53242;51.694;10.006;2022-11-20T13:12:37;15.95;;;6.00;;
66429;SDS011;53242;51.694;10.006;2022-11-20T13:18:13;13.95;;;3.95;;
66429;SDS011;53242;51.694;10.006;2022-11-20T13:20:35;18.95;;;5.95;;
66429;SDS011;53242;51.694;10.006;2022-11-20T13:23:02;20.52;;;6.13;;
66429;SDS011;53242;51.694;10.006;2022-11-20T13:25:29;18.23;;;5.95;;
66429;SDS011;53242;51.694;10.006;2022-11-20T13:27:52;17.85;;;6.32;;
66429;SDS011;53242;51.694;10.006;2022-11-20T13:30:16;20.30;;;6.80;;
66429;SDS011;53242;51.694;10.006;2022-11-20T13:35:31;15.48;;;4.75;;
66429;SDS011;53242;51.694;10.006;2022-11-20T13:40:27;18.08;;;6.13;;
66429;SDS011;53242;51.694;10.006;2022-11-20T13:45:28;17.17;;;6.70;;
66429;SDS011;53242;51.694;10.006;2022-11-20T13:47:53;18.02;;;5.90;;
66429;SDS011;53242;51.694;10.006;2022-11-20T13:50:16;18.70;;;6.72;;
66429;SDS011;53242;51.694;10.006;2022-11-20T13:52:44;16.77;;;6.45;;
66429;SDS011;53242;51.694;10.006;2022-11-20T14:00:58;20.02;;;7.03;;
66429;SDS011;53242;51.694;10.006;2022-11-20T14:03:30;19.75;;;6.60;;
66429;SDS011;53242;51.694;10.006;2022-11-20T14:05:59;19.17;;;6.88;;
66429;SDS011;53242;51.694;10.006;2022-11-20T14:08:41;19.63;;;6.80;;
66429;SDS011;53242;51.694;10.006;2022-11-20T14:16:27;18.48;;;6.60;;
66429;SDS011;53242;51.694;10.006;2022-11-20T14:18:51;18.17;;;6.30;;
66429;SDS011;53242;51.694;10.006;2022-11-20T14:21:24;21.15;;;6.68;;
66429;SDS011;53242;51.694;10.006;2022-11-20T14:23:47;17.40;;;5.45;;
66429;SDS011;53242;51.694;10.006;2022-11-20T14:26:12;20.17;;;6.65;;
66429;SDS011;53242;51.694;10.006;2022-11-20T14:28:38;17.55;;;5.95;;
66429;SDS011;53242;51.694;10.006;2022-11-20T14:31:02;17.05;;;6.22;;
66429;SDS011;53242;51.694;10.006;2022-11-20T14:33:25;18.50;;;6.30;;
66429;SDS011;53242;51.694;10.006;2022-11-20T14:35:49;21.27;;;7.55;;
66429;SDS011;53242;51.694;10.006;2022-11-20T14:38:15;22.55;;;7.28;;
66429;SDS011;53242;51.694;10.006;2022-11-20T14:40:40;25.05;;;7.38;;
66429;SDS011;53242;51.694;10.006;2022-11-20T14:43:17;32.50;;;11.32;;
66429;SDS011;53242;51.694;10.006;2022-11-20T14:45:48;25.17;;;8.93;;
66429;SDS011;53242;51.694;10.006;2022-11-20T14:48:18;24.50;;;8.38;;
66429;SDS011;53242;51.694;10.006;2022-11-20T14:50:41;22.33;;;7.22;;
66429;SDS011;53242;51.694;10.006;2022-11-20T14:53:04;23.60;;;7.35;;
66429;SDS011;53242;51.694;10.006;2022-11-20T14:55:27;30.55;;;9.00;;
66429;SDS011;53242;51.694;10.006;2022-11-20T14:57:56;26.42;;;9.00;;
66429;SDS011;53242;51.694;10.006;2022-11-20T15:00:20;23.90;;;8.02;;
66429;SDS011;53242;51.694;10.006;2022-11-20T15:02:44;26.90;;;10.93;;
66429;SDS011;53242;51.694;10.006;2022-11-20T15:05:08;32.80;;;10.65;;
66429;SDS011;53242;51.694;10.006;2022-11-20T15:07:32;20.92;;;7.40;;
66429;SDS011;53242;51.694;10.006;2022-11-20T15:10:00;20.73;;;7.60;;
66429;SDS011;53242;51.694;10.006;2022-11-20T15:12:22;20.85;;;7.45;;
66429;SDS011;53242;51.694;10.006;2022-11-20T15:14:45;17.85;;;6.70;;
66429;SDS011;53242;51.694;10.006;2022-11-20T15:17:08;22.17;;;7.50;;
66429;SDS011;53242;51.694;10.006;2022-11-20T15:19:33;19.58;;;6.68;;
66429;SDS011;53242;51.694;10.006;2022-11-20T15:21:56;22.10;;;7.13;;
66429;SDS011;53242;51.694;10.006;2022-11-20T15:24:18;21.73;;;6.82;;
66429;SDS011;53242;51.694;10.006;2022-11-20T15:26:41;21.25;;;7.75;;
66429;SDS011;53242;51.694;10.006;2022-11-20T15:29:05;22.52;;;6.18;;
66429;SDS011;53242;51.694;10.006;2022-11-20T15:31:31;21.38;;;6.80;;
66429;SDS011;53242;51.694;10.006;2022-11-20T15:33:53;18.02;;;5.88;;
66429;SDS011;53242;51.694;10.006;2022-11-20T15:36:16;16.80;;;6.45;;